createdAt,value
2022-12-23T00:00:31.447Z,16.30
2022-12-23T00:01:35.174Z,15.27
2022-12-23T00:02:44.805Z,15.98
2022-12-23T00:03:48.509Z,16.88
2022-12-23T00:04:51.162Z,17.75
2022-12-23T00:05:54.801Z,18.63
2022-12-23T00:06:57.297Z,22.80
2022-12-23T00:08:07.446Z,17.17
2022-12-23T00:09:10.944Z,18.40
2022-12-23T00:10:13.453Z,20.35
2022-12-23T00:11:24.463Z,17.77
2022-12-23T00:12:46.785Z,19.35
2022-12-23T00:14:20.541Z,23.25
2022-12-23T00:15:24.230Z,16.98
2022-12-23T00:16:27.947Z,18.25
2022-12-23T00:17:30.509Z,23.33
2022-12-23T00:18:34.350Z,18.45
2022-12-23T00:19:43.438Z,26.08
2022-12-23T00:20:46.873Z,17.90
2022-12-23T00:21:50.371Z,18.73
2022-12-23T00:23:04.929Z,21.38
2022-12-23T00:24:15.471Z,20.75
2022-12-23T00:25:18.056Z,22.75
2022-12-23T00:26:22.595Z,17.92
2022-12-23T00:27:25.145Z,17.40
2022-12-23T00:28:30.733Z,20.60
2022-12-23T00:29:39.489Z,16.83
2022-12-23T00:30:49.496Z,20.77
2022-12-23T00:31:58.806Z,22.58
2022-12-23T00:33:15.438Z,19.90
2022-12-23T00:34:25.451Z,19.45
2022-12-23T00:35:37.447Z,20.20
2022-12-23T00:36:41.136Z,26.60
2022-12-23T00:37:43.674Z,19.80
2022-12-23T00:39:11.515Z,20.75
2022-12-23T00:40:39.119Z,22.90
2022-12-23T00:42:00.206Z,22.83
2022-12-23T00:43:03.631Z,22.73
2022-12-23T00:44:07.500Z,23.80
2022-12-23T00:45:23.462Z,20.42
2022-12-23T00:46:33.012Z,21.88
2022-12-23T00:48:00.463Z,26.48
2022-12-23T00:49:21.631Z,28.17
2022-12-23T00:50:25.228Z,21.60
2022-12-23T00:51:27.732Z,22.50
2022-12-23T00:52:38.451Z,26.63
2022-12-23T00:53:40.951Z,24.95
2022-12-23T00:54:44.459Z,22.88
2022-12-23T00:55:47.816Z,25.70
2022-12-23T00:56:51.253Z,28.20
2022-12-23T00:58:00.463Z,22.88
2022-12-23T00:59:03.921Z,25.55
2022-12-23T01:00:14.458Z,23.23
2022-12-23T01:01:35.695Z,21.80
2022-12-23T01:02:56.851Z,26.92
2022-12-23T01:04:24.480Z,22.15
2022-12-23T01:05:46.463Z,25.70
2022-12-23T01:06:48.944Z,27.52
2022-12-23T01:07:53.098Z,25.63
2022-12-23T01:08:55.589Z,23.10
2022-12-23T01:10:05.510Z,25.42
2022-12-23T01:11:15.477Z,25.02
2022-12-23T01:12:19.160Z,23.55
2022-12-23T01:13:21.781Z,24.55
2022-12-23T01:14:25.339Z,25.15
2022-12-23T01:15:35.537Z,26.10
2022-12-23T01:16:39.583Z,26.48
2022-12-23T01:17:42.082Z,23.83
2022-12-23T01:18:45.635Z,26.30
2022-12-23T01:19:48.169Z,25.85
2022-12-23T01:20:58.441Z,25.35
2022-12-23T01:22:07.735Z,25.60
2022-12-23T01:23:11.137Z,27.00
2022-12-23T01:24:13.724Z,30.95
2022-12-23T01:25:17.179Z,28.17
2022-12-23T01:26:19.676Z,27.48
2022-12-23T01:27:29.457Z,25.70
2022-12-23T01:28:39.481Z,27.35
2022-12-23T01:29:42.909Z,33.83
2022-12-23T01:30:46.743Z,28.40
2022-12-23T01:31:56.663Z,30.85
2022-12-23T01:33:12.525Z,35.45
2022-12-23T01:34:15.950Z,36.67
2022-12-23T01:35:18.519Z,29.08
2022-12-23T01:36:22.471Z,30.67
2022-12-23T01:37:24.936Z,26.10
2022-12-23T01:38:35.537Z,30.55
2022-12-23T01:39:38.065Z,27.50
2022-12-23T01:40:42.823Z,26.80
2022-12-23T01:42:03.439Z,29.15
2022-12-23T01:43:05.937Z,33.20
2022-12-23T01:44:30.512Z,25.20
2022-12-23T01:45:34.514Z,29.73
2022-12-23T01:46:38.368Z,29.70
2022-12-23T01:47:45.432Z,25.33
2022-12-23T01:48:50.050Z,32.55
2022-12-23T01:50:02.487Z,30.77
2022-12-23T01:51:07.872Z,24.98
2022-12-23T01:52:10.769Z,27.33
2022-12-23T01:53:17.729Z,34.15
2022-12-23T01:54:20.255Z,26.77
2022-12-23T01:55:32.963Z,28.52
2022-12-23T01:56:36.774Z,27.60
2022-12-23T01:57:42.834Z,32.00
2022-12-23T01:58:47.114Z,28.63
2022-12-23T02:00:08.586Z,26.60
2022-12-23T02:01:36.632Z,32.60
2022-12-23T02:03:00.558Z,25.90
2022-12-23T02:04:06.182Z,28.42
2022-12-23T02:05:09.266Z,31.80
2022-12-23T02:06:38.498Z,27.67
2022-12-23T02:08:02.377Z,29.35
2022-12-23T02:09:21.019Z,25.65
2022-12-23T02:10:27.093Z,32.78
2022-12-23T02:11:36.221Z,35.42
2022-12-23T02:12:53.468Z,30.55
2022-12-23T02:14:21.005Z,31.70
2022-12-23T02:15:53.462Z,28.25
2022-12-23T02:17:00.271Z,30.60
2022-12-23T02:18:19.517Z,29.27
2022-12-23T02:19:30.936Z,31.42
2022-12-23T02:21:00.260Z,28.85
2022-12-23T02:22:09.657Z,35.72
2022-12-23T02:23:28.499Z,31.55
2022-12-23T02:24:50.075Z,35.28
2022-12-23T02:26:00.368Z,36.35
2022-12-23T02:27:11.058Z,28.98
2022-12-23T02:28:42.499Z,29.70
2022-12-23T02:30:10.503Z,31.77
2022-12-23T02:31:18.262Z,32.90
2022-12-23T02:32:30.691Z,29.02
2022-12-23T02:33:52.494Z,28.13
2022-12-23T02:34:56.745Z,33.30
2022-12-23T02:36:06.725Z,35.50
2022-12-23T02:37:21.474Z,33.83
2022-12-23T02:38:28.568Z,33.38
2022-12-23T02:39:34.563Z,30.50
2022-12-23T02:40:47.478Z,28.73
2022-12-23T02:41:56.505Z,31.27
2022-12-23T02:43:01.097Z,30.73
2022-12-23T02:44:09.031Z,35.05
2022-12-23T02:45:21.509Z,32.72
2022-12-23T02:46:31.551Z,27.52
2022-12-23T02:47:36.275Z,31.60
2022-12-23T02:48:42.694Z,32.88
2022-12-23T02:49:46.591Z,31.25
2022-12-23T02:50:57.658Z,27.52
2022-12-23T02:52:03.435Z,34.90
2022-12-23T02:53:10.376Z,30.05
2022-12-23T02:54:16.102Z,31.95
2022-12-23T02:55:21.689Z,42.47
2022-12-23T02:56:32.510Z,32.70
2022-12-23T02:57:37.327Z,35.13
2022-12-23T02:58:44.740Z,31.88
2022-12-23T02:59:49.118Z,35.58
2022-12-23T03:00:52.713Z,36.15
2022-12-23T03:02:03.575Z,32.45
2022-12-23T03:03:07.333Z,34.20
2022-12-23T03:04:10.267Z,33.58
2022-12-23T03:05:28.517Z,35.72
2022-12-23T03:06:32.928Z,36.28
2022-12-23T03:07:46.482Z,32.67
2022-12-23T03:08:50.649Z,30.05
2022-12-23T03:09:59.828Z,29.13
2022-12-23T03:11:06.709Z,32.67
2022-12-23T03:12:20.502Z,31.30
2022-12-23T03:13:29.141Z,36.42
2022-12-23T03:14:46.487Z,34.72
2022-12-23T03:15:53.062Z,40.47
2022-12-23T03:17:02.246Z,30.73
2022-12-23T03:18:07.319Z,44.25
2022-12-23T03:19:24.495Z,33.90
2022-12-23T03:20:28.905Z,42.45
2022-12-23T03:21:35.777Z,35.80
2022-12-23T03:22:41.643Z,34.40
2022-12-23T03:23:55.063Z,34.95
2022-12-23T03:25:08.516Z,33.33
2022-12-23T03:26:14.447Z,34.45
2022-12-23T03:27:18.417Z,35.95
2022-12-23T03:28:24.409Z,38.67
2022-12-23T03:29:29.675Z,36.92
2022-12-23T03:30:41.538Z,36.10
2022-12-23T03:31:45.297Z,34.03
2022-12-23T03:33:11.474Z,36.65
2022-12-23T03:34:17.164Z,38.08
2022-12-23T03:35:28.486Z,34.97
2022-12-23T03:36:34.551Z,41.40
2022-12-23T03:37:38.755Z,39.67
2022-12-23T03:38:43.438Z,36.28
2022-12-23T03:39:49.097Z,35.38
2022-12-23T03:41:01.483Z,37.70
2022-12-23T03:42:06.520Z,35.22
2022-12-23T03:43:13.296Z,40.60
2022-12-23T03:44:17.918Z,41.47
2022-12-23T03:45:38.686Z,38.60
2022-12-23T03:46:51.538Z,39.08
2022-12-23T03:47:56.850Z,39.45
2022-12-23T03:49:01.790Z,43.15
2022-12-23T03:50:06.999Z,43.05
2022-12-23T03:51:18.523Z,36.67
2022-12-23T03:52:30.488Z,44.08
2022-12-23T03:53:35.536Z,62.72
2022-12-23T03:54:42.799Z,43.67
2022-12-23T03:55:49.474Z,37.28
2022-12-23T03:57:01.484Z,35.47
2022-12-23T03:58:08.806Z,38.28
2022-12-23T03:59:14.900Z,38.28
2022-12-23T04:00:17.502Z,41.50
2022-12-23T04:01:32.647Z,32.75
2022-12-23T04:02:40.941Z,44.33
2022-12-23T04:03:49.702Z,41.72
2022-12-23T04:05:10.236Z,40.65
2022-12-23T04:06:15.657Z,35.58
2022-12-23T04:07:27.544Z,44.65
2022-12-23T04:08:32.265Z,41.38
2022-12-23T04:09:36.824Z,40.60
2022-12-23T04:10:39.522Z,42.95
2022-12-23T04:11:43.034Z,36.25
2022-12-23T04:12:52.498Z,44.08
2022-12-23T04:13:56.065Z,37.50
2022-12-23T04:15:12.328Z,43.80
2022-12-23T04:16:16.743Z,43.45
2022-12-23T04:17:20.149Z,35.10
2022-12-23T04:18:30.506Z,36.20
2022-12-23T04:19:33.461Z,44.08
2022-12-23T04:20:44.492Z,37.90
2022-12-23T04:21:47.070Z,31.98
2022-12-23T04:22:50.542Z,36.55
2022-12-23T04:23:53.131Z,37.67
2022-12-23T04:25:03.513Z,41.80
2022-12-23T04:26:06.060Z,38.13
2022-12-23T04:27:09.883Z,40.42
2022-12-23T04:28:12.399Z,37.28
2022-12-23T04:29:15.820Z,42.65
2022-12-23T04:30:29.796Z,36.05
2022-12-23T04:31:36.999Z,36.60
2022-12-23T04:32:59.484Z,39.55
2022-12-23T04:34:09.497Z,33.78
2022-12-23T04:35:12.618Z,33.95
2022-12-23T04:36:17.429Z,33.35
2022-12-23T04:37:26.490Z,31.67
2022-12-23T04:38:36.532Z,32.35
2022-12-23T04:39:39.011Z,36.42
2022-12-23T04:40:42.482Z,35.35
2022-12-23T04:41:45.060Z,30.48
2022-12-23T04:42:48.507Z,32.55
2022-12-23T04:43:57.537Z,34.58
2022-12-23T04:45:01.048Z,41.22
2022-12-23T04:46:03.599Z,38.97
2022-12-23T04:47:07.139Z,35.17
2022-12-23T04:48:09.774Z,40.88
2022-12-23T04:49:19.506Z,31.08
2022-12-23T04:50:22.091Z,34.50
2022-12-23T04:51:27.223Z,41.75
2022-12-23T04:52:30.645Z,37.35
2022-12-23T04:53:33.272Z,34.65
2022-12-23T04:54:46.286Z,40.50
2022-12-23T04:55:58.480Z,34.28
2022-12-23T04:57:01.174Z,42.67
2022-12-23T04:58:04.649Z,42.40
2022-12-23T04:59:07.260Z,40.03
2022-12-23T05:00:17.537Z,39.75
2022-12-23T05:01:20.269Z,39.08
2022-12-23T05:02:23.867Z,37.83
2022-12-23T05:03:26.500Z,37.05
2022-12-23T05:04:30.102Z,38.65
2022-12-23T05:05:39.519Z,41.75
2022-12-23T05:06:50.641Z,37.65
2022-12-23T05:07:53.226Z,41.58
2022-12-23T05:08:56.641Z,43.45
2022-12-23T05:10:02.202Z,38.97
2022-12-23T05:11:06.018Z,35.10
2022-12-23T05:12:15.526Z,38.92
2022-12-23T05:13:19.007Z,42.40
2022-12-23T05:14:21.637Z,37.05
2022-12-23T05:15:25.217Z,41.85
2022-12-23T05:16:27.827Z,36.15
2022-12-23T05:17:37.541Z,37.63
2022-12-23T05:18:41.053Z,37.53
2022-12-23T05:19:43.580Z,35.88
2022-12-23T05:20:47.299Z,44.83
2022-12-23T05:21:51.077Z,41.55
2022-12-23T05:23:01.534Z,44.35
2022-12-23T05:24:04.206Z,38.03
2022-12-23T05:25:08.142Z,36.38
2022-12-23T05:26:10.664Z,41.15
2022-12-23T05:27:14.169Z,39.88
2022-12-23T05:28:24.547Z,41.60
2022-12-23T05:29:34.506Z,39.58
2022-12-23T05:30:43.516Z,41.80
2022-12-23T05:31:46.942Z,37.78
2022-12-23T05:33:09.597Z,43.05
2022-12-23T05:34:13.174Z,32.50
2022-12-23T05:35:15.716Z,36.17
2022-12-23T05:36:25.557Z,35.97
2022-12-23T05:37:29.391Z,38.03
2022-12-23T05:38:32.899Z,45.70
2022-12-23T05:39:35.432Z,38.00
2022-12-23T05:40:38.959Z,38.92
2022-12-23T05:41:48.531Z,41.25
2022-12-23T05:42:52.041Z,34.55
2022-12-23T05:43:54.741Z,35.65
2022-12-23T05:44:58.147Z,37.65
2022-12-23T05:46:00.749Z,34.60
2022-12-23T05:47:10.530Z,35.30
2022-12-23T05:48:13.068Z,37.28
2022-12-23T05:49:16.595Z,36.33
2022-12-23T05:50:19.108Z,35.53
2022-12-23T05:51:22.659Z,43.88
2022-12-23T05:52:31.496Z,32.72
2022-12-23T05:53:36.240Z,35.90
2022-12-23T05:54:38.733Z,32.30
2022-12-23T05:55:42.152Z,32.45
2022-12-23T05:56:51.527Z,33.17
2022-12-23T05:58:02.531Z,29.55
2022-12-23T05:59:05.952Z,27.27
2022-12-23T06:00:09.810Z,32.58
2022-12-23T06:01:13.300Z,33.97
2022-12-23T06:02:22.703Z,31.27
2022-12-23T06:03:26.531Z,24.90
2022-12-23T06:04:29.395Z,31.15
2022-12-23T06:05:32.862Z,29.20
2022-12-23T06:06:35.332Z,27.45
2022-12-23T06:07:45.527Z,28.80
2022-12-23T06:08:52.075Z,27.23
2022-12-23T06:10:05.520Z,31.58
2022-12-23T06:11:08.990Z,33.83
2022-12-23T06:12:11.481Z,28.08
2022-12-23T06:13:15.143Z,25.83
2022-12-23T06:14:28.777Z,27.25
2022-12-23T06:15:39.550Z,26.58
2022-12-23T06:16:42.155Z,32.03
2022-12-23T06:17:45.658Z,24.70
2022-12-23T06:18:54.523Z,27.98
2022-12-23T06:19:57.973Z,25.40
2022-12-23T06:21:07.535Z,27.50
2022-12-23T06:22:10.289Z,29.60
2022-12-23T06:23:13.797Z,29.92
2022-12-23T06:24:39.530Z,27.90
2022-12-23T06:25:48.771Z,25.70
2022-12-23T06:26:57.009Z,28.40
2022-12-23T06:28:00.127Z,25.25
2022-12-23T06:29:03.789Z,28.02
2022-12-23T06:30:13.544Z,29.92
2022-12-23T06:31:17.139Z,29.88
2022-12-23T06:32:19.904Z,32.00
2022-12-23T06:33:29.677Z,29.15
2022-12-23T06:34:38.529Z,32.03
2022-12-23T06:35:41.933Z,28.50
2022-12-23T06:36:44.546Z,27.13
2022-12-23T06:37:48.045Z,31.75
2022-12-23T06:38:57.508Z,29.40
2022-12-23T06:40:08.569Z,32.50
2022-12-23T06:41:11.400Z,34.25
2022-12-23T06:42:14.881Z,27.67
2022-12-23T06:43:17.730Z,32.97
2022-12-23T06:44:21.193Z,28.23
2022-12-23T06:45:30.622Z,31.92
2022-12-23T06:46:34.273Z,29.10
2022-12-23T06:47:37.324Z,38.58
2022-12-23T06:48:40.762Z,34.05
2022-12-23T06:49:43.277Z,33.67
2022-12-23T06:50:53.539Z,32.47
2022-12-23T06:51:56.230Z,33.17
2022-12-23T06:53:00.030Z,33.47
2022-12-23T06:54:02.603Z,34.40
2022-12-23T06:55:07.787Z,30.23
2022-12-23T06:56:17.574Z,32.95
2022-12-23T06:57:21.007Z,30.08
2022-12-23T06:58:23.516Z,28.98
2022-12-23T06:59:27.046Z,31.77
2022-12-23T07:00:29.701Z,32.90
2022-12-23T07:01:39.665Z,33.80
2022-12-23T07:02:43.266Z,31.33
2022-12-23T07:03:46.018Z,35.20
2022-12-23T07:04:49.472Z,28.55
2022-12-23T07:05:52.487Z,34.80
2022-12-23T07:07:02.535Z,31.55
2022-12-23T07:08:05.158Z,36.20
2022-12-23T07:09:15.540Z,29.02
2022-12-23T07:10:19.413Z,34.30
2022-12-23T07:11:29.591Z,28.80
2022-12-23T07:12:33.023Z,30.05
2022-12-23T07:13:35.958Z,33.75
2022-12-23T07:14:39.389Z,35.75
2022-12-23T07:15:45.658Z,32.75
2022-12-23T07:16:54.635Z,34.90
2022-12-23T07:17:58.090Z,35.13
2022-12-23T07:19:00.669Z,28.08
2022-12-23T07:20:04.295Z,32.08
2022-12-23T07:21:11.862Z,28.63
2022-12-23T07:22:28.584Z,27.40
2022-12-23T07:23:31.389Z,26.52
2022-12-23T07:24:34.824Z,33.38
2022-12-23T07:25:38.658Z,30.77
2022-12-23T07:26:42.135Z,27.70
2022-12-23T07:27:51.576Z,28.10
2022-12-23T07:28:58.480Z,24.45
2022-12-23T07:30:00.967Z,25.70
2022-12-23T07:31:06.960Z,25.70
2022-12-23T07:32:10.530Z,29.05
2022-12-23T07:33:19.538Z,25.50
2022-12-23T07:34:36.542Z,24.58
2022-12-23T07:35:45.834Z,34.10
2022-12-23T07:36:49.328Z,27.38
2022-12-23T07:37:53.118Z,23.08
2022-12-23T07:39:03.541Z,27.05
2022-12-23T07:40:12.531Z,24.80
2022-12-23T07:41:17.699Z,30.73
2022-12-23T07:43:43.646Z,29.83
2022-12-23T07:44:52.537Z,28.90
2022-12-23T07:46:00.234Z,35.90
2022-12-23T07:47:04.553Z,31.33
2022-12-23T07:48:07.202Z,25.05
2022-12-23T07:49:10.662Z,23.52
2022-12-23T07:50:20.555Z,32.17
2022-12-23T07:51:30.521Z,25.58
2022-12-23T07:52:32.991Z,31.10
2022-12-23T07:53:36.549Z,30.83
2022-12-23T07:54:39.036Z,25.52
2022-12-23T07:55:54.587Z,25.45
2022-12-23T07:57:01.128Z,23.77
2022-12-23T07:58:11.590Z,26.17
2022-12-23T07:59:14.246Z,24.50
2022-12-23T08:00:18.209Z,25.42
2022-12-23T08:01:21.186Z,26.73
2022-12-23T08:02:25.523Z,27.02
2022-12-23T08:03:34.630Z,28.17
2022-12-23T08:04:42.648Z,29.48
2022-12-23T08:05:54.554Z,24.90
2022-12-23T08:06:58.081Z,26.48
2022-12-23T08:08:00.601Z,24.83
2022-12-23T08:09:04.073Z,27.10
2022-12-23T08:10:13.527Z,29.42
2022-12-23T08:11:24.708Z,31.55
2022-12-23T08:12:28.527Z,26.10
2022-12-23T08:13:32.997Z,26.70
2022-12-23T08:14:36.823Z,26.27
2022-12-23T08:15:39.334Z,24.45
2022-12-23T08:16:49.713Z,30.17
2022-12-23T08:17:55.244Z,28.00
2022-12-23T08:18:57.677Z,30.02
2022-12-23T08:20:01.102Z,28.17
2022-12-23T08:21:04.621Z,24.23
2022-12-23T08:22:15.579Z,27.38
2022-12-23T08:23:24.400Z,22.00
2022-12-23T08:24:28.238Z,26.60
2022-12-23T08:25:30.738Z,22.38
2022-12-23T08:26:34.312Z,24.75
2022-12-23T08:27:45.599Z,22.23
2022-12-23T08:28:49.842Z,24.17
2022-12-23T08:29:52.422Z,22.33
2022-12-23T08:30:56.195Z,23.42
2022-12-23T08:31:59.091Z,29.00
2022-12-23T08:33:08.578Z,23.00
2022-12-23T08:34:19.548Z,24.83
2022-12-23T08:35:22.185Z,27.38
2022-12-23T08:36:26.716Z,28.92
2022-12-23T08:37:35.599Z,26.60
2022-12-23T08:38:45.706Z,24.35
2022-12-23T08:39:49.198Z,27.52
2022-12-23T08:40:52.617Z,29.92
2022-12-23T08:41:56.257Z,27.88
2022-12-23T08:43:06.553Z,32.20
2022-12-23T08:44:10.314Z,26.15
2022-12-23T08:45:20.585Z,27.17
2022-12-23T08:46:23.787Z,28.10
2022-12-23T08:47:27.320Z,32.75
2022-12-23T08:48:29.858Z,31.60
2022-12-23T08:49:33.306Z,31.10
2022-12-23T08:50:45.587Z,27.48
2022-12-23T08:51:49.786Z,30.05
2022-12-23T08:52:53.495Z,27.92
2022-12-23T08:54:00.434Z,28.77
2022-12-23T08:55:11.558Z,26.65
2022-12-23T08:56:16.117Z,24.52
2022-12-23T08:57:19.568Z,28.48
2022-12-23T08:58:23.417Z,37.67
2022-12-23T08:59:26.889Z,29.83
2022-12-23T09:00:35.570Z,33.03
2022-12-23T09:01:39.059Z,28.15
2022-12-23T09:02:41.983Z,37.67
2022-12-23T09:03:46.259Z,36.47
2022-12-23T09:04:56.571Z,29.55
2022-12-23T09:05:59.126Z,30.77
2022-12-23T09:07:09.600Z,29.15
2022-12-23T09:08:13.017Z,27.92
2022-12-23T09:09:16.745Z,30.10
2022-12-23T09:10:19.266Z,32.63
2022-12-23T09:11:24.371Z,29.00
2022-12-23T09:12:33.563Z,30.58
2022-12-23T09:13:38.621Z,33.70
2022-12-23T09:14:42.104Z,29.05
2022-12-23T09:15:51.586Z,29.40
2022-12-23T09:16:55.088Z,31.00
2022-12-23T09:17:57.554Z,30.30
2022-12-23T09:19:01.358Z,31.30
2022-12-23T09:20:03.997Z,31.23
2022-12-23T09:21:15.584Z,30.05
2022-12-23T09:22:19.147Z,29.92
2022-12-23T09:23:22.424Z,33.17
2022-12-23T09:24:26.588Z,31.15
2022-12-23T09:25:29.130Z,25.38
2022-12-23T09:26:39.568Z,25.80
2022-12-23T09:27:43.027Z,26.67
2022-12-23T09:28:46.952Z,26.15
2022-12-23T09:29:50.396Z,25.90
2022-12-23T09:30:53.428Z,22.90
2022-12-23T09:32:03.701Z,26.70
2022-12-23T09:33:06.422Z,23.15
2022-12-23T09:34:23.561Z,29.08
2022-12-23T09:35:26.967Z,27.63
2022-12-23T09:36:30.495Z,27.90
2022-12-23T09:37:32.933Z,30.15
2022-12-23T09:38:36.923Z,25.77
2022-12-23T09:39:46.569Z,27.90
2022-12-23T09:40:55.704Z,27.77
2022-12-23T09:42:04.567Z,25.10
2022-12-23T09:43:13.973Z,26.73
2022-12-23T09:44:32.723Z,29.13
2022-12-23T09:45:46.324Z,29.05
2022-12-23T09:46:51.762Z,24.92
2022-12-23T09:47:55.923Z,25.55
2022-12-23T09:49:02.009Z,33.83
2022-12-23T09:50:14.626Z,28.77
2022-12-23T09:51:19.479Z,26.27
2022-12-23T09:52:24.932Z,31.90
2022-12-23T09:53:29.520Z,32.08
2022-12-23T09:54:35.029Z,29.35
2022-12-23T09:55:46.599Z,28.23
2022-12-23T09:56:53.252Z,29.63
2022-12-23T09:57:58.823Z,26.15
2022-12-23T09:59:08.854Z,29.83
2022-12-23T10:00:15.858Z,30.38
2022-12-23T10:01:31.647Z,31.73
2022-12-23T10:02:48.834Z,34.05
2022-12-23T10:04:01.033Z,31.17
2022-12-23T10:05:07.031Z,34.75
2022-12-23T10:06:12.779Z,30.02
2022-12-23T10:07:19.764Z,32.05
2022-12-23T10:08:33.585Z,37.42
2022-12-23T10:09:39.379Z,35.08
2022-12-23T10:10:44.426Z,35.85
2022-12-23T10:11:49.728Z,36.45
2022-12-23T10:12:53.699Z,33.70
2022-12-23T10:14:04.666Z,32.40
2022-12-23T10:15:16.718Z,27.80
2022-12-23T10:16:22.643Z,30.02
2022-12-23T10:17:27.788Z,35.00
2022-12-23T10:18:37.244Z,27.15
2022-12-23T10:19:49.596Z,33.47
2022-12-23T10:20:54.701Z,33.45
2022-12-23T10:22:07.593Z,32.38
2022-12-23T10:23:15.623Z,33.10
2022-12-23T10:24:22.960Z,33.65
2022-12-23T10:25:31.046Z,31.88
2022-12-23T10:26:45.071Z,27.67
2022-12-23T10:27:57.635Z,30.10
2022-12-23T10:29:18.695Z,28.85
2022-12-23T10:31:05.925Z,28.77
2022-12-23T10:32:15.839Z,28.13
2022-12-23T10:33:45.383Z,22.77
2022-12-23T10:35:01.640Z,25.67
2022-12-23T10:36:16.680Z,28.55
2022-12-23T10:37:28.784Z,32.22
2022-12-23T10:38:46.176Z,28.35
2022-12-23T10:39:56.998Z,30.80
2022-12-23T10:41:17.712Z,33.58
2022-12-23T10:42:31.801Z,31.67
2022-12-23T10:43:39.168Z,29.42
2022-12-23T10:44:55.962Z,29.95
2022-12-23T10:46:08.771Z,29.17
2022-12-23T10:47:27.527Z,27.20
2022-12-23T10:48:37.336Z,24.10
2022-12-23T10:49:50.536Z,28.83
2022-12-23T10:50:57.738Z,24.98
2022-12-23T10:52:02.620Z,27.58
2022-12-23T10:53:14.660Z,27.58
2022-12-23T10:54:19.710Z,27.75
2022-12-23T10:55:28.492Z,36.38
2022-12-23T10:56:35.283Z,43.08
2022-12-23T10:57:45.677Z,36.90
2022-12-23T10:58:52.019Z,36.75
2022-12-23T11:00:02.667Z,28.80
2022-12-23T11:01:14.955Z,26.13
2022-12-23T11:02:34.147Z,27.13
2022-12-23T11:03:40.211Z,31.08
2022-12-23T11:04:50.549Z,27.27
2022-12-23T11:05:55.244Z,25.73
2022-12-23T11:07:26.255Z,28.48
2022-12-23T11:08:22.336Z,27.20
2022-12-23T11:09:36.561Z,28.25
2022-12-23T11:10:40.104Z,28.40
2022-12-23T11:12:01.837Z,27.98
2022-12-23T11:13:04.550Z,28.42
2022-12-23T11:14:14.696Z,29.73
2022-12-23T11:15:30.832Z,27.23
2022-12-23T11:16:34.439Z,24.08
2022-12-23T11:17:44.542Z,29.05
2022-12-23T11:18:55.815Z,28.83
2022-12-23T11:20:08.983Z,27.30
2022-12-23T11:21:16.487Z,22.80
2022-12-23T11:22:25.390Z,27.35
2022-12-23T11:23:35.595Z,30.08
2022-12-23T11:24:43.238Z,27.38
2022-12-23T11:25:47.593Z,25.80
2022-12-23T11:26:52.725Z,26.67
2022-12-23T11:27:57.221Z,22.80
2022-12-23T11:29:11.756Z,24.25
2022-12-23T11:30:19.743Z,26.65
2022-12-23T11:31:27.017Z,29.23
2022-12-23T11:32:30.838Z,25.77
2022-12-23T11:33:56.535Z,26.58
2022-12-23T11:35:13.609Z,29.20
2022-12-23T11:36:18.554Z,30.65
2022-12-23T11:37:26.559Z,24.70
2022-12-23T11:38:29.737Z,27.50
2022-12-23T11:39:34.167Z,28.48
2022-12-23T11:40:44.589Z,27.15
2022-12-23T11:41:49.568Z,26.35
2022-12-23T11:42:56.094Z,27.90
2022-12-23T11:44:03.003Z,28.63
2022-12-23T11:45:15.540Z,27.15
2022-12-23T11:46:20.025Z,23.67
2022-12-23T11:47:29.516Z,30.75
2022-12-23T11:48:32.240Z,26.88
2022-12-23T11:49:37.822Z,27.85
2022-12-23T11:50:47.541Z,24.23
2022-12-23T11:52:01.915Z,31.17
2022-12-23T11:53:16.040Z,23.23
2022-12-23T11:54:26.591Z,28.75
2022-12-23T11:55:32.885Z,26.13
2022-12-23T11:56:44.737Z,26.08
2022-12-23T11:57:49.280Z,23.98
2022-12-23T11:58:55.618Z,25.55
2022-12-23T11:59:59.018Z,26.30
2022-12-23T12:01:08.721Z,24.65
2022-12-23T12:02:21.632Z,23.92
2022-12-23T12:03:28.898Z,30.17
2022-12-23T12:04:33.318Z,28.48
2022-12-23T12:05:39.917Z,30.65
2022-12-23T12:06:56.057Z,33.03
2022-12-23T12:08:01.784Z,28.80
2022-12-23T12:09:05.434Z,31.35
2022-12-23T12:10:13.355Z,28.38
2022-12-23T12:11:17.812Z,34.20
2022-12-23T12:12:28.619Z,34.58
2022-12-23T12:13:32.768Z,35.95
2022-12-23T12:14:38.938Z,36.65
2022-12-23T12:15:44.585Z,32.55
2022-12-23T12:16:53.687Z,29.63
2022-12-23T12:18:04.622Z,28.10
2022-12-23T12:19:12.557Z,31.40
2022-12-23T12:20:19.758Z,33.45
2022-12-23T12:21:24.945Z,30.92
2022-12-23T12:22:37.594Z,34.70
2022-12-23T12:23:45.460Z,29.25
2022-12-23T12:24:52.367Z,33.53
2022-12-23T12:25:58.228Z,31.25
2022-12-23T12:27:02.797Z,32.72
2022-12-23T12:28:13.598Z,33.80
2022-12-23T12:29:18.664Z,26.50
2022-12-23T12:30:23.055Z,33.13
2022-12-23T12:31:28.175Z,30.35
2022-12-23T12:32:35.725Z,28.83
2022-12-23T12:33:48.593Z,31.20
2022-12-23T12:35:01.955Z,30.52
2022-12-23T12:36:13.752Z,29.88
2022-12-23T12:37:23.585Z,31.48
2022-12-23T12:38:27.296Z,31.58
2022-12-23T12:39:39.697Z,30.45
2022-12-23T12:40:44.560Z,32.13
2022-12-23T12:41:51.230Z,34.45
2022-12-23T12:42:57.403Z,33.47
2022-12-23T12:44:09.765Z,30.15
2022-12-23T12:45:16.628Z,34.88
2022-12-23T12:46:26.390Z,34.50
2022-12-23T12:48:58.937Z,33.78
2022-12-23T12:50:09.677Z,31.70
2022-12-23T12:51:17.471Z,32.90
2022-12-23T12:52:23.863Z,33.72
2022-12-23T12:53:28.649Z,31.80
2022-12-23T12:54:34.218Z,32.70
2022-12-23T12:55:44.589Z,37.22
2022-12-23T12:56:50.147Z,32.88
2022-12-23T12:57:53.597Z,31.00
2022-12-23T12:58:57.125Z,32.67
2022-12-23T13:00:06.415Z,35.53
2022-12-23T13:01:24.689Z,35.47
2022-12-23T13:02:35.929Z,34.38
2022-12-23T13:03:51.042Z,31.90
2022-12-23T13:05:09.336Z,32.65
2022-12-23T13:06:16.311Z,30.20
2022-12-23T13:07:37.599Z,39.28
2022-12-23T13:08:48.906Z,36.95
2022-12-23T13:09:58.889Z,37.97
2022-12-23T13:11:07.521Z,37.72
2022-12-23T13:12:21.590Z,34.38
2022-12-23T13:13:29.506Z,35.05
2022-12-23T13:14:37.824Z,38.47
2022-12-23T13:15:44.147Z,34.53
2022-12-23T13:16:58.656Z,35.35
2022-12-23T13:18:20.708Z,32.75
2022-12-23T13:19:28.075Z,38.08
2022-12-23T13:20:33.720Z,37.97
2022-12-23T13:21:48.658Z,37.60
2022-12-23T13:23:02.670Z,34.25
2022-12-23T13:24:22.940Z,39.30
2022-12-23T13:25:28.075Z,42.22
2022-12-23T13:26:35.131Z,39.33
2022-12-23T13:27:52.756Z,43.58
2022-12-23T13:29:05.597Z,36.47
2022-12-23T13:30:14.104Z,37.78
2022-12-23T13:31:20.546Z,40.70
2022-12-23T13:32:28.456Z,40.35
2022-12-23T13:33:41.629Z,38.78
2022-12-23T13:34:55.314Z,41.60
2022-12-23T13:36:13.020Z,39.97
2022-12-23T13:37:25.604Z,40.30
2022-12-23T13:38:43.590Z,36.92
2022-12-23T13:39:54.842Z,39.90
2022-12-23T13:41:08.578Z,37.60
2022-12-23T13:42:14.497Z,38.22
2022-12-23T13:43:20.032Z,39.92
2022-12-23T13:44:30.784Z,43.78
2022-12-23T13:45:35.645Z,39.67
2022-12-23T13:46:43.283Z,39.40
2022-12-23T13:47:50.841Z,40.40
2022-12-23T13:48:58.228Z,43.20
2022-12-23T13:50:12.812Z,46.00
2022-12-23T13:51:20.359Z,38.38
2022-12-23T13:52:31.061Z,44.70
2022-12-23T13:53:52.310Z,46.95
2022-12-23T13:55:05.746Z,44.10
2022-12-23T13:56:12.483Z,43.00
2022-12-23T13:57:20.441Z,49.22
2022-12-23T13:58:25.341Z,43.90
2022-12-23T13:59:45.606Z,48.42
2022-12-23T14:00:58.382Z,51.30
2022-12-23T14:02:01.836Z,58.78
2022-12-23T14:03:23.060Z,49.42
2022-12-23T14:04:45.701Z,42.55
2022-12-23T14:05:50.927Z,36.10
2022-12-23T14:07:03.748Z,35.05
2022-12-23T14:08:09.082Z,36.47
2022-12-23T14:09:17.792Z,36.10
2022-12-23T14:10:23.165Z,31.88
2022-12-23T14:11:28.160Z,33.33
2022-12-23T14:12:39.685Z,30.25
2022-12-23T14:13:52.061Z,30.30
2022-12-23T14:15:03.914Z,31.08
2022-12-23T14:16:18.132Z,33.38
2022-12-23T14:17:25.016Z,33.63
2022-12-23T14:18:53.616Z,35.75
2022-12-23T14:20:05.027Z,33.08
2022-12-23T14:21:12.399Z,31.40
2022-12-23T14:22:24.475Z,32.88
2022-12-23T14:23:35.577Z,32.92
2022-12-23T14:25:09.777Z,31.90
2022-12-23T14:26:23.475Z,27.27
2022-12-23T14:27:44.926Z,31.45
2022-12-23T14:28:53.911Z,39.58
2022-12-23T14:30:08.769Z,31.40
2022-12-23T14:31:27.402Z,32.80
2022-12-23T14:32:32.364Z,33.05
2022-12-23T14:33:38.494Z,35.10
2022-12-23T14:35:15.824Z,39.53
2022-12-23T14:36:33.901Z,34.60
2022-12-23T14:37:37.194Z,35.10
2022-12-23T14:38:41.097Z,38.80
2022-12-23T14:39:43.981Z,40.95
2022-12-23T14:40:52.864Z,35.13
2022-12-23T14:42:07.610Z,42.85